LKTB/BRQ METAR and TAF weather

Enter ICAO airport designator
Station Type Date Time Source
LKTB METAR 2020/01/24 21:00 UTC NOAA

LKTB 242100Z 19005KT 2000 -FZDZ BR OVC002 M01/M02 Q1024 R27/29//95 NOSIG


Station Type Date Time Source
LKTB Decoded METAR 2020/01/24 21:00 UTC NOAA

Brno / Turany, Czech Republic (LKTB) 49-09N 016-42E 246M
Jan 24, 2020 - 04:00 PM EST / 2020.01.24 2100 UTC
Wind: from the S (190 degrees) at 6 MPH (5 KT):0
Visibility: 1 mile(s):0
Sky conditions: overcast
Weather: light freezing drizzle; mist
Temperature: 30 F (-1 C)
Windchill: 23 F (-5 C):1
Dew Point: 28 F (-2 C)
Relative Humidity: 92%
Pressure (altimeter): 30.24 in. Hg (1024 hPa)
ob: LKTB 242100Z 19005KT 2000 -FZDZ BR OVC002 M01/M02 Q1024 R27/29//95 NOSIG
cycle: 21

Station Type Date Time Source
LKTB TAF 2020/01/24 19:30 UTC NOAA

TAF
AMD LKTB 241925Z 2419/2600 VRB02KT 2000 BR OVC003
TEMPO 2419/2508 0600 FZFG OVC002 PROB30
TEMPO 2419/2507 0300 -FZDZ FZFG VV001
BECMG 2508/2510 3000 BR BKN008
TEMPO 2512/2518 7000 SCT012

Example: see airport list